sensor_id;sensor_type;location;lat;lon;timestamp;temperature;humidity
37944;DHT22;23767;42.024;23.086;2024-01-15T00:02:02;-2.50;99.90
37944;DHT22;23767;42.024;23.086;2024-01-15T00:04:28;-2.50;99.90
37944;DHT22;23767;42.024;23.086;2024-01-15T00:06:54;-2.40;99.90
37944;DHT22;23767;42.024;23.086;2024-01-15T00:09:19;-2.40;99.90
37944;DHT22;23767;42.024;23.086;2024-01-15T00:11:45;-2.40;99.90
37944;DHT22;23767;42.024;23.086;2024-01-15T00:14:11;-2.40;99.90
37944;DHT22;23767;42.024;23.086;2024-01-15T00:16:40;-2.40;99.90
37944;DHT22;23767;42.024;23.086;2024-01-15T00:19:06;-2.40;99.90
37944;DHT22;23767;42.024;23.086;2024-01-15T00:21:32;-2.40;99.90
37944;DHT22;23767;42.024;23.086;2024-01-15T00:23:58;-2.40;99.90
37944;DHT22;23767;42.024;23.086;2024-01-15T00:26:23;-2.50;99.90
37944;DHT22;23767;42.024;23.086;2024-01-15T00:28:49;-2.50;99.90
37944;DHT22;23767;42.024;23.086;2024-01-15T00:31:16;-2.60;99.90
37944;DHT22;23767;42.024;23.086;2024-01-15T00:33:42;-2.60;99.90
37944;DHT22;23767;42.024;23.086;2024-01-15T00:36:08;-2.50;99.90
37944;DHT22;23767;42.024;23.086;2024-01-15T00:38:34;-2.50;99.90
37944;DHT22;23767;42.024;23.086;2024-01-15T00:41:00;-2.50;99.90
37944;DHT22;23767;42.024;23.086;2024-01-15T00:43:25;-2.50;99.90
37944;DHT22;23767;42.024;23.086;2024-01-15T00:45:51;-2.40;99.90
37944;DHT22;23767;42.024;23.086;2024-01-15T00:48:16;-2.50;99.90
37944;DHT22;23767;42.024;23.086;2024-01-15T00:50:42;-2.40;99.90
37944;DHT22;23767;42.024;23.086;2024-01-15T00:53:08;-2.40;99.90
37944;DHT22;23767;42.024;23.086;2024-01-15T00:55:33;-2.40;99.90
37944;DHT22;23767;42.024;23.086;2024-01-15T00:57:59;-2.40;99.90
37944;DHT22;23767;42.024;23.086;2024-01-15T01:00:24;-2.40;99.90
37944;DHT22;23767;42.024;23.086;2024-01-15T01:02:50;-2.40;99.90
37944;DHT22;23767;42.024;23.086;2024-01-15T01:05:16;-2.60;99.90
37944;DHT22;23767;42.024;23.086;2024-01-15T01:07:41;-2.80;99.90
37944;DHT22;23767;42.024;23.086;2024-01-15T01:10:07;-2.80;99.90
37944;DHT22;23767;42.024;23.086;2024-01-15T01:12:33;-2.60;99.90
37944;DHT22;23767;42.024;23.086;2024-01-15T01:14:58;-2.50;99.90
37944;DHT22;23767;42.024;23.086;2024-01-15T01:17:25;-2.40;99.90
37944;DHT22;23767;42.024;23.086;2024-01-15T01:19:50;-2.30;99.90
37944;DHT22;23767;42.024;23.086;2024-01-15T01:22:16;-2.20;99.90
37944;DHT22;23767;42.024;23.086;2024-01-15T01:24:41;-2.20;99.90
37944;DHT22;23767;42.024;23.086;2024-01-15T01:27:07;-2.20;99.90
37944;DHT22;23767;42.024;23.086;2024-01-15T01:29:33;-2.20;99.90
37944;DHT22;23767;42.024;23.086;2024-01-15T01:31:58;-2.20;99.90
37944;DHT22;23767;42.024;23.086;2024-01-15T01:34:24;-2.20;99.90
37944;DHT22;23767;42.024;23.086;2024-01-15T01:36:50;-2.20;99.90
37944;DHT22;23767;42.024;23.086;2024-01-15T01:39:15;-2.20;99.90
37944;DHT22;23767;42.024;23.086;2024-01-15T01:41:41;-2.20;99.90
37944;DHT22;23767;42.024;23.086;2024-01-15T01:44:07;-2.20;99.90
37944;DHT22;23767;42.024;23.086;2024-01-15T01:46:33;-2.20;99.90
37944;DHT22;23767;42.024;23.086;2024-01-15T01:48:59;-2.20;99.90
37944;DHT22;23767;42.024;23.086;2024-01-15T01:51:30;-2.20;99.90
37944;DHT22;23767;42.024;23.086;2024-01-15T01:53:56;-2.20;99.90
37944;DHT22;23767;42.024;23.086;2024-01-15T01:56:22;-2.20;99.90
37944;DHT22;23767;42.024;23.086;2024-01-15T01:58:48;-2.20;99.90
37944;DHT22;23767;42.024;23.086;2024-01-15T02:01:15;-2.20;99.90
37944;DHT22;23767;42.024;23.086;2024-01-15T02:03:41;-2.20;99.90
37944;DHT22;23767;42.024;23.086;2024-01-15T02:06:07;-2.40;99.90
37944;DHT22;23767;42.024;23.086;2024-01-15T02:08:33;-2.40;99.90
37944;DHT22;23767;42.024;23.086;2024-01-15T02:11:00;-2.40;99.90
37944;DHT22;23767;42.024;23.086;2024-01-15T02:13:26;-2.40;99.90
37944;DHT22;23767;42.024;23.086;2024-01-15T02:15:53;-2.40;99.90
37944;DHT22;23767;42.024;23.086;2024-01-15T02:18:19;-2.40;99.90
37944;DHT22;23767;42.024;23.086;2024-01-15T02:20:45;-2.40;99.90
37944;DHT22;23767;42.024;23.086;2024-01-15T02:23:13;-2.40;99.90
37944;DHT22;23767;42.024;23.086;2024-01-15T02:25:44;-2.40;99.90
37944;DHT22;23767;42.024;23.086;2024-01-15T02:28:16;-2.40;99.90
37944;DHT22;23767;42.024;23.086;2024-01-15T02:30:43;-2.40;99.90
37944;DHT22;23767;42.024;23.086;2024-01-15T02:33:10;-2.40;99.90
37944;DHT22;23767;42.024;23.086;2024-01-15T02:35:36;-2.40;99.90
37944;DHT22;23767;42.024;23.086;2024-01-15T02:38:03;-2.50;99.90
37944;DHT22;23767;42.024;23.086;2024-01-15T02:40:28;-2.50;99.90
37944;DHT22;23767;42.024;23.086;2024-01-15T02:42:54;-2.60;99.90
37944;DHT22;23767;42.024;23.086;2024-01-15T02:45:21;-2.60;99.90
37944;DHT22;23767;42.024;23.086;2024-01-15T02:47:46;-2.70;99.90
37944;DHT22;23767;42.024;23.086;2024-01-15T02:50:12;-2.80;99.90
37944;DHT22;23767;42.024;23.086;2024-01-15T02:52:38;-3.00;99.90
37944;DHT22;23767;42.024;23.086;2024-01-15T02:55:04;-3.10;99.90
37944;DHT22;23767;42.024;23.086;2024-01-15T02:57:30;-3.10;99.90
37944;DHT22;23767;42.024;23.086;2024-01-15T02:59:55;-3.00;99.90
37944;DHT22;23767;42.024;23.086;2024-01-15T03:02:21;-3.00;99.90
37944;DHT22;23767;42.024;23.086;2024-01-15T03:04:46;-2.90;99.90
37944;DHT22;23767;42.024;23.086;2024-01-15T03:07:13;-2.80;99.90
37944;DHT22;23767;42.024;23.086;2024-01-15T03:09:43;-2.80;99.90
37944;DHT22;23767;42.024;23.086;2024-01-15T03:12:09;-2.80;99.90
37944;DHT22;23767;42.024;23.086;2024-01-15T03:14:36;-2.80;99.90
37944;DHT22;23767;42.024;23.086;2024-01-15T03:17:02;-2.90;99.90
37944;DHT22;23767;42.024;23.086;2024-01-15T03:19:28;-2.80;99.90
37944;DHT22;23767;42.024;23.086;2024-01-15T03:21:53;-2.90;99.90
37944;DHT22;23767;42.024;23.086;2024-01-15T03:24:20;-2.90;99.90
37944;DHT22;23767;42.024;23.086;2024-01-15T03:26:46;-2.90;99.90
37944;DHT22;23767;42.024;23.086;2024-01-15T03:29:11;-3.00;99.90
37944;DHT22;23767;42.024;23.086;2024-01-15T03:31:37;-3.10;99.90
37944;DHT22;23767;42.024;23.086;2024-01-15T03:34:02;-3.20;99.90
37944;DHT22;23767;42.024;23.086;2024-01-15T03:36:29;-3.20;99.90
37944;DHT22;23767;42.024;23.086;2024-01-15T03:38:55;-3.40;99.90
37944;DHT22;23767;42.024;23.086;2024-01-15T03:41:22;-3.40;99.90
37944;DHT22;23767;42.024;23.086;2024-01-15T03:43:47;-3.50;99.90
37944;DHT22;23767;42.024;23.086;2024-01-15T03:46:13;-3.50;99.90
37944;DHT22;23767;42.024;23.086;2024-01-15T03:48:39;-3.40;99.90
37944;DHT22;23767;42.024;23.086;2024-01-15T03:51:04;-3.40;99.90
37944;DHT22;23767;42.024;23.086;2024-01-15T03:53:30;-3.40;99.90
37944;DHT22;23767;42.024;23.086;2024-01-15T03:55:56;-3.30;99.90
37944;DHT22;23767;42.024;23.086;2024-01-15T03:58:21;-3.20;99.90
37944;DHT22;23767;42.024;23.086;2024-01-15T04:00:47;-3.40;99.90
37944;DHT22;23767;42.024;23.086;2024-01-15T04:03:13;-3.70;99.90
37944;DHT22;23767;42.024;23.086;2024-01-15T04:05:40;-3.60;99.90
37944;DHT22;23767;42.024;23.086;2024-01-15T04:08:05;-3.50;99.90
37944;DHT22;23767;42.024;23.086;2024-01-15T04:10:31;-3.40;99.90
37944;DHT22;23767;42.024;23.086;2024-01-15T04:12:57;-3.30;99.90
37944;DHT22;23767;42.024;23.086;2024-01-15T04:15:25;-3.20;99.90
37944;DHT22;23767;42.024;23.086;2024-01-15T04:17:51;-3.10;99.90
37944;DHT22;23767;42.024;23.086;2024-01-15T04:20:17;-3.10;99.90
37944;DHT22;23767;42.024;23.086;2024-01-15T04:22:43;-3.10;99.90
37944;DHT22;23767;42.024;23.086;2024-01-15T04:25:09;-3.00;99.90
37944;DHT22;23767;42.024;23.086;2024-01-15T04:27:35;-3.10;99.90
37944;DHT22;23767;42.024;23.086;2024-01-15T04:30:00;-3.20;99.90
37944;DHT22;23767;42.024;23.086;2024-01-15T04:32:26;-3.20;99.90
37944;DHT22;23767;42.024;23.086;2024-01-15T04:34:52;-3.20;99.90
37944;DHT22;23767;42.024;23.086;2024-01-15T04:37:17;-3.20;99.90
37944;DHT22;23767;42.024;23.086;2024-01-15T04:39:43;-3.30;99.90
37944;DHT22;23767;42.024;23.086;2024-01-15T04:42:08;-3.40;99.90
37944;DHT22;23767;42.024;23.086;2024-01-15T04:44:34;-3.40;99.90
37944;DHT22;23767;42.024;23.086;2024-01-15T04:47:00;-3.40;99.90
37944;DHT22;23767;42.024;23.086;2024-01-15T04:49:25;-3.30;99.90
37944;DHT22;23767;42.024;23.086;2024-01-15T04:51:55;-3.20;99.90
37944;DHT22;23767;42.024;23.086;2024-01-15T04:54:20;-3.20;99.90
37944;DHT22;23767;42.024;23.086;2024-01-15T04:56:46;-3.10;99.90
37944;DHT22;23767;42.024;23.086;2024-01-15T04:59:13;-3.10;99.90
37944;DHT22;23767;42.024;23.086;2024-01-15T05:01:40;-3.00;99.90
37944;DHT22;23767;42.024;23.086;2024-01-15T05:04:06;-3.00;99.90
37944;DHT22;23767;42.024;23.086;2024-01-15T05:06:31;-2.90;99.90
37944;DHT22;23767;42.024;23.086;2024-01-15T05:08:57;-2.90;99.90
37944;DHT22;23767;42.024;23.086;2024-01-15T05:11:23;-3.00;99.90
37944;DHT22;23767;42.024;23.086;2024-01-15T05:13:48;-2.90;99.90
37944;DHT22;23767;42.024;23.086;2024-01-15T05:16:14;-2.90;99.90
37944;DHT22;23767;42.024;23.086;2024-01-15T05:18:40;-3.00;99.90
37944;DHT22;23767;42.024;23.086;2024-01-15T05:21:05;-3.10;99.90
37944;DHT22;23767;42.024;23.086;2024-01-15T05:23:31;-3.10;99.90
37944;DHT22;23767;42.024;23.086;2024-01-15T05:25:57;-3.10;99.90
37944;DHT22;23767;42.024;23.086;2024-01-15T05:28:23;-3.00;99.90
37944;DHT22;23767;42.024;23.086;2024-01-15T05:30:48;-3.10;99.90
37944;DHT22;23767;42.024;23.086;2024-01-15T05:33:16;-3.10;99.90
37944;DHT22;23767;42.024;23.086;2024-01-15T05:35:42;-3.00;99.90
37944;DHT22;23767;42.024;23.086;2024-01-15T05:38:07;-3.00;99.90
37944;DHT22;23767;42.024;23.086;2024-01-15T05:40:33;-3.00;99.90
37944;DHT22;23767;42.024;23.086;2024-01-15T05:42:58;-3.00;99.90
37944;DHT22;23767;42.024;23.086;2024-01-15T05:45:26;-2.90;99.90
37944;DHT22;23767;42.024;23.086;2024-01-15T05:47:52;-2.90;99.90
37944;DHT22;23767;42.024;23.086;2024-01-15T05:50:17;-3.30;99.90
37944;DHT22;23767;42.024;23.086;2024-01-15T05:52:43;-3.40;99.90
37944;DHT22;23767;42.024;23.086;2024-01-15T05:55:09;-3.60;99.90
37944;DHT22;23767;42.024;23.086;2024-01-15T05:57:35;-3.40;99.90
37944;DHT22;23767;42.024;23.086;2024-01-15T06:00:01;-3.50;99.90
37944;DHT22;23767;42.024;23.086;2024-01-15T06:02:28;-3.60;99.90
37944;DHT22;23767;42.024;23.086;2024-01-15T06:04:53;-3.60;99.90
37944;DHT22;23767;42.024;23.086;2024-01-15T06:07:19;-3.60;99.90
37944;DHT22;23767;42.024;23.086;2024-01-15T06:09:44;-3.70;99.90
37944;DHT22;23767;42.024;23.086;2024-01-15T06:12:10;-3.60;99.90
37944;DHT22;23767;42.024;23.086;2024-01-15T06:14:36;-3.50;99.90
37944;DHT22;23767;42.024;23.086;2024-01-15T06:17:01;-3.30;99.90
37944;DHT22;23767;42.024;23.086;2024-01-15T06:19:27;-3.20;99.90
37944;DHT22;23767;42.024;23.086;2024-01-15T06:21:53;-3.00;99.90
37944;DHT22;23767;42.024;23.086;2024-01-15T06:24:18;-3.00;99.90
37944;DHT22;23767;42.024;23.086;2024-01-15T06:26:47;-2.90;99.90
37944;DHT22;23767;42.024;23.086;2024-01-15T06:29:13;-2.80;99.90
37944;DHT22;23767;42.024;23.086;2024-01-15T06:31:38;-2.70;99.90
37944;DHT22;23767;42.024;23.086;2024-01-15T06:34:04;-2.50;99.90
37944;DHT22;23767;42.024;23.086;2024-01-15T06:36:29;-2.40;99.90
37944;DHT22;23767;42.024;23.086;2024-01-15T06:38:55;-2.20;99.90
37944;DHT22;23767;42.024;23.086;2024-01-15T06:41:21;-2.10;99.90
37944;DHT22;23767;42.024;23.086;2024-01-15T06:43:48;-2.00;99.90
37944;DHT22;23767;42.024;23.086;2024-01-15T06:46:22;-2.00;99.90
37944;DHT22;23767;42.024;23.086;2024-01-15T06:48:48;-1.90;99.90
37944;DHT22;23767;42.024;23.086;2024-01-15T06:51:15;-2.00;99.90
37944;DHT22;23767;42.024;23.086;2024-01-15T06:53:41;-2.50;99.90
37944;DHT22;23767;42.024;23.086;2024-01-15T06:56:06;-2.90;99.90
37944;DHT22;23767;42.024;23.086;2024-01-15T06:58:32;-2.90;99.90
37944;DHT22;23767;42.024;23.086;2024-01-15T07:00:58;-2.90;99.90
37944;DHT22;23767;42.024;23.086;2024-01-15T07:03:23;-2.80;99.90
37944;DHT22;23767;42.024;23.086;2024-01-15T07:05:49;-2.60;99.90
37944;DHT22;23767;42.024;23.086;2024-01-15T07:08:15;-2.40;99.90
37944;DHT22;23767;42.024;23.086;2024-01-15T07:10:41;-2.20;99.90
37944;DHT22;23767;42.024;23.086;2024-01-15T07:13:06;-2.00;99.90
37944;DHT22;23767;42.024;23.086;2024-01-15T07:15:32;-1.80;99.90
37944;DHT22;23767;42.024;23.086;2024-01-15T07:17:58;-1.80;99.90
37944;DHT22;23767;42.024;23.086;2024-01-15T07:20:23;-1.70;99.90
37944;DHT22;23767;42.024;23.086;2024-01-15T07:22:49;-1.60;99.90
37944;DHT22;23767;42.024;23.086;2024-01-15T07:25:15;-1.60;99.90
37944;DHT22;23767;42.024;23.086;2024-01-15T07:27:41;-1.40;99.90
37944;DHT22;23767;42.024;23.086;2024-01-15T07:30:11;-1.20;99.90
37944;DHT22;23767;42.024;23.086;2024-01-15T07:32:36;-1.40;99.90
37944;DHT22;23767;42.024;23.086;2024-01-15T07:35:03;-1.50;99.90
37944;DHT22;23767;42.024;23.086;2024-01-15T07:37:28;-1.50;99.90
37944;DHT22;23767;42.024;23.086;2024-01-15T07:39:54;-1.40;99.90
37944;DHT22;23767;42.024;23.086;2024-01-15T07:42:20;-1.20;99.90
37944;DHT22;23767;42.024;23.086;2024-01-15T07:44:45;-1.20;99.90
37944;DHT22;23767;42.024;23.086;2024-01-15T07:47:11;-1.00;99.90
37944;DHT22;23767;42.024;23.086;2024-01-15T07:49:39;-0.90;99.90
37944;DHT22;23767;42.024;23.086;2024-01-15T07:52:06;-0.70;99.90
37944;DHT22;23767;42.024;23.086;2024-01-15T07:54:32;-0.50;99.90
37944;DHT22;23767;42.024;23.086;2024-01-15T07:56:59;-0.30;99.90
37944;DHT22;23767;42.024;23.086;2024-01-15T07:59:26;-0.20;99.90
37944;DHT22;23767;42.024;23.086;2024-01-15T08:01:52;-0.30;99.90
37944;DHT22;23767;42.024;23.086;2024-01-15T08:04:19;-0.30;99.90
37944;DHT22;23767;42.024;23.086;2024-01-15T08:06:45;-0.20;99.90
37944;DHT22;23767;42.024;23.086;2024-01-15T08:09:11;-0.10;99.90
37944;DHT22;23767;42.024;23.086;2024-01-15T08:11:41;0.10;99.90
37944;DHT22;23767;42.024;23.086;2024-01-15T08:14:08;0.30;99.90
37944;DHT22;23767;42.024;23.086;2024-01-15T08:16:33;0.40;99.90
37944;DHT22;23767;42.024;23.086;2024-01-15T08:18:59;0.40;99.90
37944;DHT22;23767;42.024;23.086;2024-01-15T08:21:25;0.40;99.90
37944;DHT22;23767;42.024;23.086;2024-01-15T08:23:51;0.50;99.90
37944;DHT22;23767;42.024;23.086;2024-01-15T08:26:17;0.60;99.90
37944;DHT22;23767;42.024;23.086;2024-01-15T08:28:43;0.60;99.90
37944;DHT22;23767;42.024;23.086;2024-01-15T08:31:08;0.70;99.90
37944;DHT22;23767;42.024;23.086;2024-01-15T08:33:34;0.70;99.90
37944;DHT22;23767;42.024;23.086;2024-01-15T08:36:01;0.80;99.90
37944;DHT22;23767;42.024;23.086;2024-01-15T08:38:27;0.90;99.90
37944;DHT22;23767;42.024;23.086;2024-01-15T08:40:52;0.90;99.90
37944;DHT22;23767;42.024;23.086;2024-01-15T08:43:19;0.90;99.90
37944;DHT22;23767;42.024;23.086;2024-01-15T08:45:44;1.00;99.90
37944;DHT22;23767;42.024;23.086;2024-01-15T08:48:10;1.00;99.90
37944;DHT22;23767;42.024;23.086;2024-01-15T08:50:36;1.10;99.90
37944;DHT22;23767;42.024;23.086;2024-01-15T08:53:02;1.10;99.90
37944;DHT22;23767;42.024;23.086;2024-01-15T08:55:28;1.20;99.90
37944;DHT22;23767;42.024;23.086;2024-01-15T08:57:53;1.30;99.90
37944;DHT22;23767;42.024;23.086;2024-01-15T09:00:19;1.30;99.90
37944;DHT22;23767;42.024;23.086;2024-01-15T09:02:45;1.30;99.90
37944;DHT22;23767;42.024;23.086;2024-01-15T09:05:11;1.30;99.90
37944;DHT22;23767;42.024;23.086;2024-01-15T09:07:36;1.40;99.90
37944;DHT22;23767;42.024;23.086;2024-01-15T09:10:02;1.40;99.90
37944;DHT22;23767;42.024;23.086;2024-01-15T09:12:28;1.40;99.90
37944;DHT22;23767;42.024;23.086;2024-01-15T09:14:54;1.40;99.90
37944;DHT22;23767;42.024;23.086;2024-01-15T09:17:21;1.30;99.90
37944;DHT22;23767;42.024;23.086;2024-01-15T09:19:49;1.30;99.90
37944;DHT22;23767;42.024;23.086;2024-01-15T09:22:14;1.40;99.90
37944;DHT22;23767;42.024;23.086;2024-01-15T09:24:44;1.50;99.90
37944;DHT22;23767;42.024;23.086;2024-01-15T09:27:09;1.40;99.90
37944;DHT22;23767;42.024;23.086;2024-01-15T09:29:35;1.40;99.90
37944;DHT22;23767;42.024;23.086;2024-01-15T09:32:03;1.50;99.90
37944;DHT22;23767;42.024;23.086;2024-01-15T09:34:29;1.50;99.90
37944;DHT22;23767;42.024;23.086;2024-01-15T09:36:55;1.50;99.90
37944;DHT22;23767;42.024;23.086;2024-01-15T09:39:21;1.60;99.90
37944;DHT22;23767;42.024;23.086;2024-01-15T09:41:49;1.70;99.90
37944;DHT22;23767;42.024;23.086;2024-01-15T09:44:16;1.80;99.90
37944;DHT22;23767;42.024;23.086;2024-01-15T09:46:42;1.90;99.90
37944;DHT22;23767;42.024;23.086;2024-01-15T09:49:10;2.00;99.90
37944;DHT22;23767;42.024;23.086;2024-01-15T09:51:37;2.00;99.90
37944;DHT22;23767;42.024;23.086;2024-01-15T09:54:05;2.10;99.90
37944;DHT22;23767;42.024;23.086;2024-01-15T09:56:31;2.20;99.90
37944;DHT22;23767;42.024;23.086;2024-01-15T09:58:57;2.30;99.90
37944;DHT22;23767;42.024;23.086;2024-01-15T10:01:23;2.20;99.90
37944;DHT22;23767;42.024;23.086;2024-01-15T10:03:50;2.30;99.90
37944;DHT22;23767;42.024;23.086;2024-01-15T10:06:16;2.30;99.90
37944;DHT22;23767;42.024;23.086;2024-01-15T10:08:48;2.50;99.90
37944;DHT22;23767;42.024;23.086;2024-01-15T10:11:14;2.60;99.90
37944;DHT22;23767;42.024;23.086;2024-01-15T10:13:39;2.60;99.90
37944;DHT22;23767;42.024;23.086;2024-01-15T10:16:06;2.60;99.90
37944;DHT22;23767;42.024;23.086;2024-01-15T10:18:32;2.60;99.90
37944;DHT22;23767;42.024;23.086;2024-01-15T10:20:58;2.70;99.90
37944;DHT22;23767;42.024;23.086;2024-01-15T10:23:24;2.80;99.90
37944;DHT22;23767;42.024;23.086;2024-01-15T10:25:50;2.80;99.90
37944;DHT22;23767;42.024;23.086;2024-01-15T10:28:18;2.80;99.90
37944;DHT22;23767;42.024;23.086;2024-01-15T10:30:44;2.90;99.90
37944;DHT22;23767;42.024;23.086;2024-01-15T10:33:10;3.00;99.90
37944;DHT22;23767;42.024;23.086;2024-01-15T10:35:38;3.10;99.90
37944;DHT22;23767;42.024;23.086;2024-01-15T10:38:05;3.10;99.90
37944;DHT22;23767;42.024;23.086;2024-01-15T10:40:31;3.00;99.90
37944;DHT22;23767;42.024;23.086;2024-01-15T10:42:57;3.10;99.90
37944;DHT22;23767;42.024;23.086;2024-01-15T10:45:23;3.10;99.90
37944;DHT22;23767;42.024;23.086;2024-01-15T10:47:49;2.90;99.90
37944;DHT22;23767;42.024;23.086;2024-01-15T10:50:15;2.90;99.90
37944;DHT22;23767;42.024;23.086;2024-01-15T10:52:41;3.00;99.90
37944;DHT22;23767;42.024;23.086;2024-01-15T10:55:10;3.20;99.90
37944;DHT22;23767;42.024;23.086;2024-01-15T10:57:37;3.40;99.90
37944;DHT22;23767;42.024;23.086;2024-01-15T11:00:04;3.40;99.90
37944;DHT22;23767;42.024;23.086;2024-01-15T11:02:32;3.50;99.90
37944;DHT22;23767;42.024;23.086;2024-01-15T11:04:59;3.60;99.90
37944;DHT22;23767;42.024;23.086;2024-01-15T11:07:25;3.70;99.90
37944;DHT22;23767;42.024;23.086;2024-01-15T11:09:51;3.70;99.90
37944;DHT22;23767;42.024;23.086;2024-01-15T11:12:17;3.80;99.90
37944;DHT22;23767;42.024;23.086;2024-01-15T11:14:47;3.80;99.90
37944;DHT22;23767;42.024;23.086;2024-01-15T11:17:14;3.80;99.90
37944;DHT22;23767;42.024;23.086;2024-01-15T11:22:09;3.70;99.90
37944;DHT22;23767;42.024;23.086;2024-01-15T11:24:40;3.80;99.90
37944;DHT22;23767;42.024;23.086;2024-01-15T11:27:07;3.90;99.90
37944;DHT22;23767;42.024;23.086;2024-01-15T11:29:36;3.90;99.90
37944;DHT22;23767;42.024;23.086;2024-01-15T11:32:09;4.00;99.90
37944;DHT22;23767;42.024;23.086;2024-01-15T11:34:59;4.10;99.90
37944;DHT22;23767;42.024;23.086;2024-01-15T11:37:27;4.30;99.90
37944;DHT22;23767;42.024;23.086;2024-01-15T11:40:03;4.50;99.90
37944;DHT22;23767;42.024;23.086;2024-01-15T11:42:36;4.60;99.90
37944;DHT22;23767;42.024;23.086;2024-01-15T11:45:02;4.80;99.90
37944;DHT22;23767;42.024;23.086;2024-01-15T11:50:32;4.90;99.70
37944;DHT22;23767;42.024;23.086;2024-01-15T11:53:03;5.00;99.90
37944;DHT22;23767;42.024;23.086;2024-01-15T11:55:39;5.10;99.30
37944;DHT22;23767;42.024;23.086;2024-01-15T11:58:09;5.30;98.80
37944;DHT22;23767;42.024;23.086;2024-01-15T12:00:47;5.40;98.40
37944;DHT22;23767;42.024;23.086;2024-01-15T12:03:13;5.40;98.40
37944;DHT22;23767;42.024;23.086;2024-01-15T12:05:39;5.50;98.00
37944;DHT22;23767;42.024;23.086;2024-01-15T12:08:05;5.60;97.90
37944;DHT22;23767;42.024;23.086;2024-01-15T12:10:36;5.60;97.00
37944;DHT22;23767;42.024;23.086;2024-01-15T12:13:15;5.70;96.90
37944;DHT22;23767;42.024;23.086;2024-01-15T12:15:43;5.70;97.10
37944;DHT22;23767;42.024;23.086;2024-01-15T12:18:11;5.90;96.80
37944;DHT22;23767;42.024;23.086;2024-01-15T12:20:37;5.90;96.60
37944;DHT22;23767;42.024;23.086;2024-01-15T12:23:03;5.90;96.10
37944;DHT22;23767;42.024;23.086;2024-01-15T12:25:30;5.90;95.90
37944;DHT22;23767;42.024;23.086;2024-01-15T12:27:56;6.00;96.10
37944;DHT22;23767;42.024;23.086;2024-01-15T12:30:22;6.10;96.40
37944;DHT22;23767;42.024;23.086;2024-01-15T12:32:48;6.20;96.10
37944;DHT22;23767;42.024;23.086;2024-01-15T12:35:14;6.20;95.50
37944;DHT22;23767;42.024;23.086;2024-01-15T12:37:41;6.30;95.70
37944;DHT22;23767;42.024;23.086;2024-01-15T12:40:08;6.30;95.50
37944;DHT22;23767;42.024;23.086;2024-01-15T12:42:39;6.30;95.40
37944;DHT22;23767;42.024;23.086;2024-01-15T12:45:06;6.40;95.20
37944;DHT22;23767;42.024;23.086;2024-01-15T12:47:32;6.40;95.30
37944;DHT22;23767;42.024;23.086;2024-01-15T12:49:58;6.40;95.10
37944;DHT22;23767;42.024;23.086;2024-01-15T12:52:28;6.50;94.60
37944;DHT22;23767;42.024;23.086;2024-01-15T12:54:54;6.50;94.20
37944;DHT22;23767;42.024;23.086;2024-01-15T12:57:19;6.50;94.10
37944;DHT22;23767;42.024;23.086;2024-01-15T12:59:45;6.50;93.70
37944;DHT22;23767;42.024;23.086;2024-01-15T13:02:15;6.50;93.40
37944;DHT22;23767;42.024;23.086;2024-01-15T13:04:40;6.50;93.00
37944;DHT22;23767;42.024;23.086;2024-01-15T13:07:06;6.50;93.20
37944;DHT22;23767;42.024;23.086;2024-01-15T13:09:33;6.30;93.00
37944;DHT22;23767;42.024;23.086;2024-01-15T13:11:59;6.40;92.90
37944;DHT22;23767;42.024;23.086;2024-01-15T13:14:24;6.40;92.50
37944;DHT22;23767;42.024;23.086;2024-01-15T13:16:50;6.40;92.10
37944;DHT22;23767;42.024;23.086;2024-01-15T13:19:16;6.40;92.20
37944;DHT22;23767;42.024;23.086;2024-01-15T13:21:42;6.50;92.00
37944;DHT22;23767;42.024;23.086;2024-01-15T13:24:08;6.40;91.50
37944;DHT22;23767;42.024;23.086;2024-01-15T13:26:34;6.40;91.30
37944;DHT22;23767;42.024;23.086;2024-01-15T13:29:02;6.40;91.40
37944;DHT22;23767;42.024;23.086;2024-01-15T13:31:29;6.50;91.40
37944;DHT22;23767;42.024;23.086;2024-01-15T13:33:55;6.50;91.10
37944;DHT22;23767;42.024;23.086;2024-01-15T13:36:24;6.40;90.90
37944;DHT22;23767;42.024;23.086;2024-01-15T13:38:51;6.40;91.20
37944;DHT22;23767;42.024;23.086;2024-01-15T13:41:17;6.40;91.00
37944;DHT22;23767;42.024;23.086;2024-01-15T13:43:46;6.40;91.10
37944;DHT22;23767;42.024;23.086;2024-01-15T13:46:11;6.40;90.80
37944;DHT22;23767;42.024;23.086;2024-01-15T13:48:37;6.40;90.90
37944;DHT22;23767;42.024;23.086;2024-01-15T13:51:03;6.40;90.90
37944;DHT22;23767;42.024;23.086;2024-01-15T13:53:28;6.40;90.80
37944;DHT22;23767;42.024;23.086;2024-01-15T13:55:55;6.50;90.80
37944;DHT22;23767;42.024;23.086;2024-01-15T13:58:20;6.50;90.90
37944;DHT22;23767;42.024;23.086;2024-01-15T14:00:47;6.50;90.40
37944;DHT22;23767;42.024;23.086;2024-01-15T14:03:13;6.50;90.30
37944;DHT22;23767;42.024;23.086;2024-01-15T14:05:38;6.50;90.20
37944;DHT22;23767;42.024;23.086;2024-01-15T14:08:04;6.50;90.20
37944;DHT22;23767;42.024;23.086;2024-01-15T14:10:30;6.50;89.80
37944;DHT22;23767;42.024;23.086;2024-01-15T14:12:56;6.60;89.50
37944;DHT22;23767;42.024;23.086;2024-01-15T14:15:21;6.50;89.30
37944;DHT22;23767;42.024;23.086;2024-01-15T14:17:47;6.60;89.70
37944;DHT22;23767;42.024;23.086;2024-01-15T14:20:13;6.50;89.80
37944;DHT22;23767;42.024;23.086;2024-01-15T14:22:39;6.60;90.10
37944;DHT22;23767;42.024;23.086;2024-01-15T14:25:04;6.60;90.10
37944;DHT22;23767;42.024;23.086;2024-01-15T14:27:30;6.60;90.30
37944;DHT22;23767;42.024;23.086;2024-01-15T14:29:56;6.60;90.20
37944;DHT22;23767;42.024;23.086;2024-01-15T14:32:21;6.60;90.50
37944;DHT22;23767;42.024;23.086;2024-01-15T14:34:47;6.60;90.50
37944;DHT22;23767;42.024;23.086;2024-01-15T14:37:13;6.60;90.70
37944;DHT22;23767;42.024;23.086;2024-01-15T14:39:39;6.60;90.70
37944;DHT22;23767;42.024;23.086;2024-01-15T14:42:04;6.60;90.90
37944;DHT22;23767;42.024;23.086;2024-01-15T14:44:30;6.50;90.80
37944;DHT22;23767;42.024;23.086;2024-01-15T14:46:56;6.50;90.60
37944;DHT22;23767;42.024;23.086;2024-01-15T14:49:24;6.60;90.70
37944;DHT22;23767;42.024;23.086;2024-01-15T14:51:50;6.60;90.50
37944;DHT22;23767;42.024;23.086;2024-01-15T14:54:15;6.50;90.60
37944;DHT22;23767;42.024;23.086;2024-01-15T14:56:41;6.60;90.70
37944;DHT22;23767;42.024;23.086;2024-01-15T14:59:08;6.60;90.90
37944;DHT22;23767;42.024;23.086;2024-01-15T15:01:34;6.70;90.90
37944;DHT22;23767;42.024;23.086;2024-01-15T15:03:59;6.60;90.80
37944;DHT22;23767;42.024;23.086;2024-01-15T15:06:25;6.60;90.90
37944;DHT22;23767;42.024;23.086;2024-01-15T15:08:53;6.60;90.60
37944;DHT22;23767;42.024;23.086;2024-01-15T15:11:21;6.60;90.40
37944;DHT22;23767;42.024;23.086;2024-01-15T15:13:48;6.60;90.40
37944;DHT22;23767;42.024;23.086;2024-01-15T15:16:15;6.60;90.30
37944;DHT22;23767;42.024;23.086;2024-01-15T15:18:41;6.60;90.30
37944;DHT22;23767;42.024;23.086;2024-01-15T15:21:08;6.60;89.90
37944;DHT22;23767;42.024;23.086;2024-01-15T15:23:34;6.50;90.00